createdAt,value
2018-08-31T00:02:37.814Z,13.00
2018-08-31T00:06:00.321Z,13.00
2018-08-31T00:10:47.945Z,13.00
2018-08-31T00:13:16.978Z,13.00
2018-08-31T00:15:45.995Z,13.00
2018-08-31T00:18:14.980Z,12.90
2018-08-31T00:20:44.105Z,13.00
2018-08-31T00:23:13.074Z,13.00
2018-08-31T00:26:04.338Z,13.00
2018-08-31T00:29:05.536Z,13.00
2018-08-31T00:33:53.847Z,12.90
2018-08-31T00:39:35.440Z,12.90
2018-08-31T00:43:22.200Z,12.90
2018-08-31T00:45:51.254Z,12.90
2018-08-31T00:48:20.395Z,13.00
2018-08-31T00:50:49.490Z,13.10
2018-08-31T00:53:18.631Z,13.10
2018-08-31T00:55:47.768Z,13.10
2018-08-31T00:58:16.814Z,13.10
2018-08-31T01:00:45.941Z,13.10
2018-08-31T01:03:14.932Z,13.10
2018-08-31T01:05:43.954Z,13.10
2018-08-31T01:08:13.011Z,13.10
2018-08-31T01:10:42.037Z,13.10
2018-08-31T01:13:11.073Z,13.10
2018-08-31T01:15:40.184Z,13.10
2018-08-31T01:18:09.295Z,13.00
2018-08-31T01:20:38.289Z,13.10
2018-08-31T01:23:07.310Z,13.10
2018-08-31T01:25:36.342Z,13.10
2018-08-31T01:28:05.464Z,13.10
2018-08-31T01:30:34.477Z,12.80
2018-08-31T01:33:03.438Z,12.80
2018-08-31T01:35:33.014Z,12.80
2018-08-31T01:38:02.041Z,12.80
2018-08-31T01:40:31.931Z,12.80
2018-08-31T01:43:00.934Z,12.90
2018-08-31T01:45:29.970Z,12.90
2018-08-31T01:47:58.934Z,12.80
2018-08-31T01:50:27.954Z,12.90
2018-08-31T01:52:58.277Z,12.90
2018-08-31T01:55:31.807Z,12.90
2018-08-31T01:58:01.674Z,12.90
2018-08-31T02:00:30.813Z,12.80
2018-08-31T02:02:59.915Z,12.90
2018-08-31T02:05:29.043Z,12.90
2018-08-31T02:07:58.031Z,12.80
2018-08-31T02:10:27.126Z,12.80
2018-08-31T02:12:56.155Z,12.80
2018-08-31T02:15:25.162Z,12.80
2018-08-31T02:17:54.171Z,12.80
2018-08-31T02:20:23.262Z,12.80
2018-08-31T02:22:52.262Z,12.80
2018-08-31T02:25:21.285Z,12.90
2018-08-31T02:27:50.272Z,12.90
2018-08-31T02:30:19.239Z,13.00
2018-08-31T02:32:48.230Z,13.00
2018-08-31T02:35:17.232Z,12.90
2018-08-31T02:37:46.220Z,12.80
2018-08-31T02:40:15.297Z,12.90
2018-08-31T02:42:44.384Z,12.90
2018-08-31T02:45:13.482Z,12.80
2018-08-31T02:47:42.509Z,12.70
2018-08-31T02:50:11.605Z,12.60
2018-08-31T02:52:40.683Z,12.60
2018-08-31T02:55:09.697Z,12.70
2018-08-31T02:57:38.766Z,12.70
2018-08-31T03:00:07.793Z,12.60
2018-08-31T03:02:36.890Z,12.60
2018-08-31T03:05:05.962Z,12.60
2018-08-31T03:07:35.048Z,12.40
2018-08-31T03:10:04.180Z,12.40
2018-08-31T03:12:33.206Z,12.40
2018-08-31T03:15:02.259Z,12.40
2018-08-31T03:17:31.290Z,12.40
2018-08-31T03:20:00.299Z,12.40
2018-08-31T03:22:29.362Z,12.50
2018-08-31T03:24:58.360Z,12.50
2018-08-31T03:27:27.411Z,12.50
2018-08-31T03:29:56.466Z,12.50
2018-08-31T03:32:25.472Z,12.50
2018-08-31T03:34:54.529Z,12.40
2018-08-31T03:37:23.587Z,12.40
2018-08-31T03:39:52.642Z,12.40
2018-08-31T03:42:21.669Z,12.40
2018-08-31T03:44:50.695Z,12.40
2018-08-31T03:47:19.701Z,12.40
2018-08-31T03:49:48.778Z,12.40
2018-08-31T03:52:17.786Z,12.50
2018-08-31T03:54:46.805Z,12.50
2018-08-31T03:57:15.890Z,12.50
2018-08-31T03:59:45.022Z,12.50
2018-08-31T04:02:14.005Z,12.50
2018-08-31T04:04:43.041Z,12.50
2018-08-31T04:07:12.095Z,12.50
2018-08-31T04:09:41.090Z,12.40
2018-08-31T04:12:10.074Z,12.50
2018-08-31T04:14:39.053Z,12.50
2018-08-31T04:17:08.099Z,12.40
2018-08-31T04:19:37.164Z,12.40
2018-08-31T04:22:06.302Z,12.40
2018-08-31T04:24:35.279Z,12.40
2018-08-31T04:27:04.394Z,12.40
2018-08-31T04:29:33.390Z,12.40
2018-08-31T04:32:02.448Z,12.40
2018-08-31T04:34:31.448Z,12.40
2018-08-31T04:37:00.502Z,12.40
2018-08-31T04:39:29.828Z,12.50
2018-08-31T04:41:58.794Z,12.50
2018-08-31T04:44:27.899Z,12.50
2018-08-31T04:46:57.048Z,12.50
2018-08-31T04:49:26.052Z,12.50
2018-08-31T04:51:55.007Z,12.60
2018-08-31T04:54:23.996Z,12.50
2018-08-31T04:56:53.167Z,12.50
2018-08-31T04:59:22.154Z,12.50
2018-08-31T05:01:51.203Z,12.60
2018-08-31T05:04:20.191Z,12.50
2018-08-31T05:06:49.209Z,12.30
2018-08-31T05:09:18.218Z,12.30
2018-08-31T05:11:47.263Z,12.30
2018-08-31T05:14:16.258Z,12.30
2018-08-31T05:16:45.287Z,12.40
2018-08-31T05:19:14.357Z,12.40
2018-08-31T05:21:43.414Z,12.50
2018-08-31T05:24:12.453Z,12.50
2018-08-31T05:26:41.449Z,12.60
2018-08-31T05:29:10.538Z,12.60
2018-08-31T05:31:39.651Z,12.60
2018-08-31T05:34:08.685Z,12.70
2018-08-31T05:36:37.630Z,12.70
2018-08-31T05:39:09.410Z,12.70
2018-08-31T05:41:38.526Z,12.70
2018-08-31T05:44:07.490Z,12.70
2018-08-31T05:46:36.631Z,12.70
2018-08-31T05:49:05.651Z,12.70
2018-08-31T05:51:34.630Z,12.70
2018-08-31T05:54:03.720Z,12.70
2018-08-31T05:56:32.833Z,12.70
2018-08-31T05:59:01.835Z,12.70
2018-08-31T06:01:30.863Z,12.80
2018-08-31T06:03:59.930Z,12.80
2018-08-31T06:06:29.016Z,12.90
2018-08-31T06:08:58.055Z,13.00
2018-08-31T06:11:27.148Z,13.00
2018-08-31T06:13:56.226Z,13.00
2018-08-31T06:16:25.276Z,13.00
2018-08-31T06:18:54.294Z,13.10
2018-08-31T06:21:23.422Z,13.10
2018-08-31T06:23:52.523Z,13.20
2018-08-31T06:26:21.590Z,13.20
2018-08-31T06:28:50.585Z,13.20
2018-08-31T06:31:19.723Z,13.10
2018-08-31T06:33:48.770Z,13.20
2018-08-31T06:36:17.758Z,13.20
2018-08-31T06:38:46.831Z,13.30
2018-08-31T06:41:15.846Z,13.40
2018-08-31T06:43:44.832Z,13.50
2018-08-31T06:46:13.921Z,13.50
2018-08-31T06:48:42.949Z,13.60
2018-08-31T06:51:11.899Z,13.70
2018-08-31T06:53:40.887Z,13.80
2018-08-31T06:56:09.906Z,13.90
2018-08-31T06:58:39.013Z,14.00
2018-08-31T07:01:08.054Z,14.10
2018-08-31T07:03:37.118Z,14.00
2018-08-31T07:06:06.138Z,14.00
2018-08-31T07:08:35.153Z,14.00
2018-08-31T07:11:04.215Z,14.00
2018-08-31T07:13:33.344Z,14.00
2018-08-31T07:16:02.354Z,14.10
2018-08-31T07:18:31.351Z,14.10
2018-08-31T07:21:00.369Z,14.10
2018-08-31T07:23:29.446Z,14.20
2018-08-31T07:25:58.509Z,14.30
2018-08-31T07:28:27.529Z,14.40
2018-08-31T07:30:56.535Z,14.40
2018-08-31T07:33:25.662Z,14.50
2018-08-31T07:35:54.851Z,14.60
2018-08-31T07:38:23.841Z,14.70
2018-08-31T07:40:52.879Z,15.00
2018-08-31T07:43:21.878Z,15.20
2018-08-31T07:45:50.863Z,15.40
2018-08-31T07:48:19.860Z,15.50
2018-08-31T07:50:48.950Z,15.60
2018-08-31T07:53:18.007Z,15.70
2018-08-31T07:55:46.994Z,15.60
2018-08-31T07:58:16.014Z,15.60
2018-08-31T08:00:45.020Z,15.50
2018-08-31T08:03:14.051Z,15.50
2018-08-31T08:05:43.102Z,15.80
2018-08-31T08:08:12.167Z,16.30
2018-08-31T08:10:41.175Z,16.80
2018-08-31T08:13:10.239Z,17.20
2018-08-31T08:15:39.197Z,17.50
2018-08-31T08:18:08.322Z,17.70
2018-08-31T08:20:37.469Z,18.10
2018-08-31T08:23:06.457Z,18.60
2018-08-31T08:25:35.575Z,18.60
2018-08-31T08:28:04.630Z,18.50
2018-08-31T08:30:33.812Z,18.70
2018-08-31T08:33:02.827Z,18.80
2018-08-31T08:35:32.637Z,18.90
2018-08-31T08:38:01.695Z,18.80
2018-08-31T08:40:30.718Z,18.50
2018-08-31T08:42:59.909Z,18.50
2018-08-31T08:45:29.162Z,18.50
2018-08-31T08:47:58.174Z,18.20
2018-08-31T08:50:27.301Z,18.10
2018-08-31T08:52:56.337Z,18.40
2018-08-31T08:55:25.478Z,19.00
2018-08-31T08:57:54.512Z,19.00
2018-08-31T09:00:23.597Z,19.10
2018-08-31T09:02:52.647Z,19.10
2018-08-31T09:05:21.648Z,19.20
2018-08-31T09:07:50.665Z,19.40
2018-08-31T09:10:19.701Z,19.30
2018-08-31T09:12:48.691Z,19.30
2018-08-31T09:15:17.768Z,19.20
2018-08-31T09:17:46.822Z,19.10
2018-08-31T09:20:15.918Z,19.00
2018-08-31T09:22:44.834Z,19.00
2018-08-31T09:25:13.807Z,18.90
2018-08-31T09:27:42.815Z,18.90
2018-08-31T09:30:17.192Z,18.80
2018-08-31T09:32:46.318Z,18.90
2018-08-31T09:35:15.254Z,18.80
2018-08-31T09:37:44.263Z,19.00
2018-08-31T09:40:13.258Z,18.90
2018-08-31T09:42:42.245Z,18.80
2018-08-31T09:45:11.295Z,18.70
2018-08-31T09:47:40.267Z,18.60
2018-08-31T09:50:09.417Z,18.60
2018-08-31T09:52:38.401Z,18.70
2018-08-31T09:55:07.458Z,18.60
2018-08-31T09:57:36.555Z,18.70
2018-08-31T10:00:05.844Z,18.70
2018-08-31T10:02:38.403Z,18.70
2018-08-31T10:05:08.395Z,18.80
2018-08-31T10:07:37.400Z,19.00
2018-08-31T10:10:06.441Z,19.20
2018-08-31T10:12:35.519Z,19.30
2018-08-31T10:15:04.610Z,19.40
2018-08-31T10:17:33.685Z,19.30
2018-08-31T10:20:02.715Z,19.30
2018-08-31T10:22:31.798Z,19.30
2018-08-31T10:25:00.894Z,19.40
2018-08-31T10:27:29.887Z,19.50
2018-08-31T10:29:58.880Z,19.60
2018-08-31T10:32:27.899Z,19.60
2018-08-31T10:34:56.866Z,19.70
2018-08-31T10:37:25.958Z,19.80
2018-08-31T10:39:55.047Z,19.80
2018-08-31T10:42:24.099Z,19.90
2018-08-31T10:44:53.102Z,19.80
2018-08-31T10:47:22.107Z,19.80
2018-08-31T10:49:51.135Z,19.80
2018-08-31T10:52:20.143Z,19.80
2018-08-31T10:54:49.246Z,19.80
2018-08-31T10:57:18.221Z,19.70
2018-08-31T10:59:47.349Z,19.60
2018-08-31T11:02:16.392Z,19.50
2018-08-31T11:04:45.407Z,19.30
2018-08-31T11:07:14.640Z,19.40
2018-08-31T11:09:43.843Z,19.30
2018-08-31T11:12:12.860Z,19.30
2018-08-31T11:14:41.935Z,19.20
2018-08-31T11:17:11.043Z,19.10
2018-08-31T11:19:40.022Z,19.10
2018-08-31T11:22:09.016Z,19.10
2018-08-31T11:24:37.978Z,19.10
2018-08-31T11:27:07.017Z,19.20
2018-08-31T11:29:36.034Z,19.20
2018-08-31T11:32:05.396Z,19.30
2018-08-31T11:34:34.391Z,19.10
2018-08-31T11:37:03.482Z,19.20
2018-08-31T11:39:32.567Z,19.30
2018-08-31T11:42:01.519Z,19.40
2018-08-31T11:44:30.663Z,19.40
2018-08-31T11:46:59.773Z,19.40
2018-08-31T11:49:28.768Z,19.40
2018-08-31T11:51:57.738Z,19.40
2018-08-31T11:54:26.754Z,19.40
2018-08-31T11:56:55.787Z,19.40
2018-08-31T11:59:24.768Z,19.50
2018-08-31T12:01:53.787Z,19.50
2018-08-31T12:04:22.764Z,19.60
2018-08-31T12:06:51.732Z,19.60
2018-08-31T12:09:21.058Z,19.50
2018-08-31T12:11:50.040Z,19.50
2018-08-31T12:14:19.124Z,19.30
2018-08-31T12:16:48.294Z,19.30
2018-08-31T12:19:17.318Z,19.40
2018-08-31T12:21:46.333Z,19.30
2018-08-31T12:24:15.307Z,19.30
2018-08-31T12:26:44.278Z,19.20
2018-08-31T12:29:13.439Z,19.20
2018-08-31T12:31:42.408Z,19.10
2018-08-31T12:34:11.406Z,19.00
2018-08-31T12:36:40.432Z,19.00
2018-08-31T12:39:10.379Z,19.00
2018-08-31T12:41:39.572Z,18.90
2018-08-31T12:44:08.660Z,18.90
2018-08-31T12:46:37.654Z,19.00
2018-08-31T12:49:06.678Z,19.00
2018-08-31T12:51:35.735Z,19.00
2018-08-31T12:54:04.755Z,18.90
2018-08-31T12:56:33.841Z,18.90
2018-08-31T12:59:02.883Z,18.80
2018-08-31T13:01:31.937Z,18.90
2018-08-31T13:04:00.991Z,18.90
2018-08-31T13:06:30.862Z,18.90
2018-08-31T13:08:59.830Z,18.90
2018-08-31T13:11:28.811Z,18.80
2018-08-31T13:13:57.881Z,18.90
2018-08-31T13:16:26.850Z,18.80
2018-08-31T13:18:55.863Z,18.80
2018-08-31T13:21:24.860Z,18.80
2018-08-31T13:23:53.886Z,18.80
2018-08-31T13:26:23.007Z,18.80
2018-08-31T13:28:52.005Z,18.80
2018-08-31T13:31:21.010Z,18.70
2018-08-31T13:33:50.360Z,18.80
2018-08-31T13:36:19.383Z,18.70
2018-08-31T13:38:48.525Z,18.60
2018-08-31T13:41:17.554Z,18.60
2018-08-31T13:43:46.676Z,18.50
2018-08-31T13:46:15.762Z,18.60
2018-08-31T13:48:44.809Z,18.60
2018-08-31T13:51:13.869Z,18.60
2018-08-31T13:53:42.859Z,18.50
2018-08-31T13:56:11.910Z,18.40
2018-08-31T13:58:40.899Z,18.30
2018-08-31T14:01:09.955Z,18.30
2018-08-31T14:03:38.977Z,18.30
2018-08-31T14:06:07.974Z,18.30
2018-08-31T14:08:37.059Z,18.40
2018-08-31T14:11:06.282Z,18.40
2018-08-31T14:13:35.341Z,18.40
2018-08-31T14:16:04.447Z,18.40
2018-08-31T14:18:33.553Z,18.30
2018-08-31T14:21:02.749Z,18.40
2018-08-31T14:23:31.717Z,18.30
2018-08-31T14:26:00.724Z,18.30
2018-08-31T14:28:29.700Z,18.30
2018-08-31T14:30:58.714Z,18.30
2018-08-31T14:33:27.779Z,18.30
2018-08-31T14:35:56.741Z,18.30
2018-08-31T14:38:25.878Z,18.30
2018-08-31T14:40:54.962Z,18.20
2018-08-31T14:43:24.102Z,18.20
2018-08-31T14:45:53.146Z,18.20
2018-08-31T14:48:22.218Z,18.10
2018-08-31T14:50:51.179Z,18.10
2018-08-31T14:53:20.204Z,18.10
2018-08-31T14:55:49.219Z,18.20
2018-08-31T14:58:18.231Z,18.10
2018-08-31T15:00:47.263Z,18.10
2018-08-31T15:03:16.254Z,18.00
2018-08-31T15:05:45.288Z,18.00
2018-08-31T15:08:14.238Z,18.10
2018-08-31T15:10:43.258Z,18.10
2018-08-31T15:13:12.243Z,18.10
2018-08-31T15:15:41.304Z,18.00
2018-08-31T15:18:10.429Z,18.10
2018-08-31T15:20:45.799Z,18.00
2018-08-31T15:23:14.903Z,17.90
2018-08-31T15:25:44.062Z,17.90
2018-08-31T15:28:13.150Z,17.80
2018-08-31T15:30:42.307Z,17.90
2018-08-31T15:33:11.281Z,17.90
2018-08-31T15:35:40.320Z,17.90
2018-08-31T15:38:09.320Z,17.80
2018-08-31T15:40:38.295Z,17.90
2018-08-31T15:43:07.343Z,17.90
2018-08-31T15:45:36.369Z,18.00
2018-08-31T15:48:05.655Z,18.00
2018-08-31T15:50:34.724Z,18.00
2018-08-31T15:53:03.709Z,18.00
2018-08-31T15:55:32.761Z,18.00
2018-08-31T15:58:01.962Z,18.00
2018-08-31T16:00:31.023Z,18.00
2018-08-31T16:03:00.094Z,18.00
2018-08-31T16:05:29.094Z,18.00
2018-08-31T16:07:58.138Z,18.00
2018-08-31T16:10:27.182Z,17.90
2018-08-31T16:12:56.193Z,17.90
2018-08-31T16:15:25.220Z,17.90
2018-08-31T16:17:54.518Z,17.90
2018-08-31T16:20:23.539Z,17.80
2018-08-31T16:22:52.551Z,17.90
2018-08-31T16:25:21.892Z,17.80
2018-08-31T16:27:50.901Z,17.80
2018-08-31T16:30:19.862Z,17.70
2018-08-31T16:32:48.853Z,17.70
2018-08-31T16:35:17.858Z,17.70
2018-08-31T16:37:46.823Z,17.70
2018-08-31T16:40:16.519Z,17.60
2018-08-31T16:42:45.578Z,17.70
2018-08-31T16:45:14.953Z,17.70
2018-08-31T16:47:44.060Z,17.70
2018-08-31T16:50:13.157Z,17.70
2018-08-31T16:52:42.159Z,17.70
2018-08-31T16:55:11.219Z,17.70
2018-08-31T16:57:40.353Z,17.70
2018-08-31T17:00:09.410Z,17.70
2018-08-31T17:02:38.358Z,17.70
2018-08-31T17:05:07.387Z,17.70
2018-08-31T17:07:36.432Z,17.70
2018-08-31T17:10:05.421Z,17.60
2018-08-31T17:12:34.459Z,17.60
2018-08-31T17:15:03.461Z,17.50
2018-08-31T17:17:32.465Z,17.60
2018-08-31T17:20:01.512Z,17.60
2018-08-31T17:22:30.630Z,17.50
2018-08-31T17:24:59.627Z,17.50
2018-08-31T17:28:31.929Z,17.50
2018-08-31T17:31:06.466Z,17.50
2018-08-31T17:33:40.964Z,17.50
2018-08-31T17:36:15.394Z,17.40
2018-08-31T17:38:44.505Z,17.40
2018-08-31T17:41:13.515Z,17.40
2018-08-31T17:43:42.546Z,17.40
2018-08-31T17:46:11.607Z,17.30
2018-08-31T17:48:40.594Z,17.20
2018-08-31T17:51:09.578Z,17.20
2018-08-31T17:53:38.700Z,17.20
2018-08-31T17:56:07.792Z,17.20
2018-08-31T17:58:36.782Z,17.10
2018-08-31T18:01:05.833Z,17.10
2018-08-31T18:03:34.896Z,17.10
2018-08-31T18:06:03.923Z,17.10
2018-08-31T18:08:33.012Z,17.10
2018-08-31T18:11:01.990Z,17.10
2018-08-31T18:13:31.051Z,17.00
2018-08-31T18:16:00.086Z,17.00
2018-08-31T18:18:28.997Z,17.00
2018-08-31T18:20:58.098Z,17.00
2018-08-31T18:23:27.201Z,16.90
2018-08-31T18:25:56.352Z,16.90
2018-08-31T18:28:25.453Z,16.90
2018-08-31T18:30:54.515Z,16.90
2018-08-31T18:33:23.678Z,16.80
2018-08-31T18:35:52.728Z,16.80
2018-08-31T18:38:21.714Z,16.80
2018-08-31T18:40:50.756Z,16.70
2018-08-31T18:43:20.048Z,16.60
2018-08-31T18:45:49.204Z,16.60
2018-08-31T18:48:18.427Z,16.50
2018-08-31T18:50:47.537Z,16.40
2018-08-31T18:53:16.514Z,16.40
2018-08-31T18:55:45.527Z,16.40
2018-08-31T18:58:14.684Z,16.40
2018-08-31T19:00:43.699Z,16.40
2018-08-31T19:03:12.833Z,16.30
2018-08-31T19:05:41.969Z,16.30
2018-08-31T19:08:10.971Z,16.30
2018-08-31T19:10:40.069Z,16.30
2018-08-31T19:13:09.155Z,16.20
2018-08-31T19:15:38.247Z,16.20
2018-08-31T19:18:07.324Z,16.10
2018-08-31T19:20:36.297Z,16.00
2018-08-31T19:23:05.338Z,16.00
2018-08-31T19:25:34.411Z,16.00
2018-08-31T19:28:03.477Z,16.10
2018-08-31T19:30:32.817Z,16.10
2018-08-31T19:33:01.913Z,16.10
2018-08-31T19:35:30.936Z,16.10
2018-08-31T19:37:59.941Z,16.00
2018-08-31T19:40:28.929Z,16.00
2018-08-31T19:42:57.981Z,16.10
2018-08-31T19:45:26.962Z,16.00
2018-08-31T19:47:55.974Z,16.00
2018-08-31T19:50:25.163Z,15.90
2018-08-31T19:52:54.202Z,16.00
2018-08-31T19:55:23.203Z,15.90
2018-08-31T19:57:52.254Z,15.90
2018-08-31T20:00:21.278Z,15.90
2018-08-31T20:02:50.267Z,15.90
2018-08-31T20:05:19.426Z,15.90
2018-08-31T20:07:48.482Z,15.90
2018-08-31T20:10:17.539Z,15.80
2018-08-31T20:12:46.634Z,15.80
2018-08-31T20:15:15.787Z,15.80
2018-08-31T20:17:44.809Z,15.80
2018-08-31T20:20:13.787Z,15.80
2018-08-31T20:22:42.834Z,15.70
2018-08-31T20:25:11.969Z,15.60
2018-08-31T20:27:40.958Z,15.70
2018-08-31T20:30:09.938Z,15.60
2018-08-31T20:32:39.000Z,15.70
2018-08-31T20:35:08.009Z,15.60
2018-08-31T20:37:37.048Z,15.70
2018-08-31T20:40:06.555Z,15.70
2018-08-31T20:42:35.695Z,15.60
2018-08-31T20:45:04.778Z,15.60
2018-08-31T20:47:33.797Z,15.50
2018-08-31T20:50:02.838Z,15.50
2018-08-31T20:52:31.876Z,15.50
2018-08-31T20:55:01.046Z,15.50
2018-08-31T20:57:30.043Z,15.50
2018-08-31T20:59:59.106Z,15.60
2018-08-31T21:02:31.192Z,15.60
2018-08-31T21:05:00.235Z,15.60
2018-08-31T21:07:29.294Z,15.50
2018-08-31T21:09:58.294Z,15.60
2018-08-31T21:12:27.320Z,15.60
2018-08-31T21:14:56.357Z,15.50
2018-08-31T21:17:25.363Z,15.50
2018-08-31T21:19:54.433Z,15.50
2018-08-31T21:22:23.470Z,15.50
2018-08-31T21:24:52.475Z,15.40
2018-08-31T21:27:21.630Z,15.40
2018-08-31T21:29:50.662Z,15.40
2018-08-31T21:32:19.752Z,15.40
2018-08-31T21:34:48.793Z,15.50
2018-08-31T21:37:17.882Z,15.50
2018-08-31T21:39:46.869Z,15.50
2018-08-31T21:42:15.960Z,15.50
2018-08-31T21:44:44.939Z,15.50
2018-08-31T21:47:13.986Z,15.50
2018-08-31T21:49:43.069Z,15.40
2018-08-31T21:52:12.110Z,15.40
2018-08-31T21:54:41.240Z,15.40
2018-08-31T21:57:10.266Z,15.40
2018-08-31T21:59:39.261Z,15.30
2018-08-31T22:02:08.335Z,15.30
2018-08-31T22:04:37.400Z,15.30
2018-08-31T22:07:06.359Z,15.30
2018-08-31T22:09:35.349Z,15.30
2018-08-31T22:12:04.379Z,15.30
2018-08-31T22:14:33.433Z,15.30
2018-08-31T22:17:02.406Z,15.30
2018-08-31T22:19:31.511Z,15.30
2018-08-31T22:22:00.507Z,15.30
2018-08-31T22:24:29.549Z,15.20
2018-08-31T22:26:58.615Z,15.20
2018-08-31T22:29:27.669Z,15.20
2018-08-31T22:31:56.628Z,15.20
2018-08-31T22:34:25.665Z,15.20
2018-08-31T22:36:54.769Z,15.20
2018-08-31T22:39:23.835Z,15.20
2018-08-31T22:41:52.933Z,15.20
2018-08-31T22:44:21.915Z,15.20
2018-08-31T22:46:50.891Z,15.20
2018-08-31T22:49:20.070Z,15.20
2018-08-31T22:51:49.271Z,15.10
2018-08-31T22:54:18.344Z,15.10
2018-08-31T22:56:47.377Z,15.00
2018-08-31T22:59:16.368Z,15.00
2018-08-31T23:01:45.377Z,15.00
2018-08-31T23:04:14.519Z,15.00
2018-08-31T23:06:43.558Z,15.00
2018-08-31T23:09:12.643Z,15.00
2018-08-31T23:11:41.912Z,15.10
2018-08-31T23:14:10.914Z,15.00
2018-08-31T23:16:40.057Z,15.00
2018-08-31T23:19:09.229Z,15.00
2018-08-31T23:21:38.263Z,15.00
2018-08-31T23:24:07.357Z,15.00
2018-08-31T23:26:36.453Z,14.90
2018-08-31T23:29:05.573Z,14.90
2018-08-31T23:31:34.575Z,14.90
2018-08-31T23:34:03.552Z,14.90
2018-08-31T23:36:32.504Z,14.90
2018-08-31T23:39:01.923Z,14.90
2018-08-31T23:41:30.945Z,14.90
2018-08-31T23:43:59.955Z,14.80
2018-08-31T23:46:28.938Z,14.80
2018-08-31T23:48:57.995Z,14.80
2018-08-31T23:51:27.073Z,14.80
2018-08-31T23:53:56.130Z,14.80
2018-08-31T23:56:25.108Z,14.80
2018-08-31T23:58:54.085Z,14.80
